Latest  Newer  Older  Last 2 hours slideshow  Last 24 hours slideshow  Refresh every 5 minutes 
Current image  Latest image  Rain/snow radar  Cloud coverage sat images 

All time is UTC (add 2 hours to UTC in wintertime, 3 hours to UTC in DST for Latvia local time)

2021/06/22 03:50 EVRA 220350Z 14004KT 100V170 CAVOK 23/17 Q1010 NOSIG
2021/06/22 03:50 EVLA 220350Z AUTO 12005KT 100V160 9999 FEW100/// 23/16 Q1008
2021/06/22 03:50 EVVA 220350Z AUTO 13005KT CAVOK 22/19 Q1009
2021/06/22 03:50 EYKA 220350Z 11003KT 070V140 CAVOK 21/16 Q1011
2021/06/22 03:50 EYPA 220350Z 14006KT 110V170 CAVOK 23/15 Q1009
2021/06/22 03:50 EYSA 220350Z 14008KT CAVOK 20/16 Q1011 BLU NOSIG
2021/06/22 03:50 EYVI 220350Z 15007KT 8000 NSC 22/18 Q1012 NOSIG
2021/06/22 03:50 EEKA 220350Z 15007KT CAVOK 24/19 Q1010
2021/06/22 03:50 EEKE 220350Z 14007KT CAVOK 22/19 Q1010

2021/06/22 03:50 EETN 220350Z 14005KT CAVOK 23/18 Q1012 NOSIG
2021/06/22 03:50 EETU 220350Z AUTO 09004KT 9999 NCD 21/17 Q1013
   RIGA AIRPORT     EVRA               56 55N  023 58E   10   X     T          6 LV
   LIEPAJA INTL     EVLA        26406  56 31N  021 06E    4   X                8 LV
   VENTPILS         EVVA               57 21N  021 33E    6   X                8 LV
   KAUNAS           EYKA               54 54N  023 55E   77   X     T          6 LT
   PALANGA INTL     EYPA               55 55N  021 03E   10   X                6 LT
   SIAULIAI INTL    EYSA               55 54N  023 24E  135   X     T          6 LT
   VILNIUS INTL     EYVI        26730  54 38N  025 17E  197   X     T          6 LT
   KARDLA           EEKA        26116  58 59N  022 50E    4   X                8 EE
   KURESSAARE       EEKE               58 14N  022 31E    4   X                8 EE
   PARNU            EEPU               58 25N  024 28E   14   X                8 EE
   TALLINN          EETN        26038  59 24N  024 49E   40   X     T          8 EE
   TARTU            EETU               58 19N  026 41E   67   X                8 EE